createdAt,value
2023-04-09T00:00:41.965Z,7.47
2023-04-09T00:03:15.101Z,7.76
2023-04-09T00:05:44.904Z,7.91
2023-04-09T00:08:14.509Z,7.83
2023-04-09T00:10:44.138Z,8.03
2023-04-09T00:13:14.341Z,8.19
2023-04-09T00:15:44.728Z,8.30
2023-04-09T00:18:17.689Z,8.16
2023-04-09T00:20:47.537Z,7.98
2023-04-09T00:23:17.269Z,7.99
2023-04-09T00:25:46.945Z,7.95
2023-04-09T00:28:16.901Z,8.13
2023-04-09T00:30:46.658Z,8.13
2023-04-09T00:33:18.925Z,8.13
2023-04-09T00:35:48.614Z,8.22
2023-04-09T00:38:18.310Z,7.71
2023-04-09T00:40:51.840Z,8.08
2023-04-09T00:43:21.740Z,8.08
2023-04-09T00:45:51.464Z,8.08
2023-04-09T00:48:23.963Z,8.14
2023-04-09T00:50:53.886Z,7.62
2023-04-09T00:53:23.685Z,7.83
2023-04-09T00:55:53.381Z,8.00
2023-04-09T00:58:23.032Z,7.91
2023-04-09T01:00:52.787Z,7.45
2023-04-09T01:03:25.178Z,7.76
2023-04-09T01:06:03.205Z,7.62
2023-04-09T01:08:40.527Z,7.30
2023-04-09T01:11:17.542Z,7.48
2023-04-09T01:13:55.606Z,8.19
2023-04-09T01:16:27.442Z,8.05
2023-04-09T01:19:02.959Z,8.30
2023-04-09T01:21:35.212Z,7.81
2023-04-09T01:24:21.777Z,7.60
2023-04-09T01:27:01.749Z,7.93
2023-04-09T01:29:46.610Z,7.83
2023-04-09T01:32:19.385Z,7.93
2023-04-09T01:34:51.037Z,8.13
2023-04-09T01:37:21.903Z,7.88
2023-04-09T01:39:51.838Z,8.18
2023-04-09T01:42:22.265Z,7.89
2023-04-09T01:44:55.590Z,7.51
2023-04-09T01:47:26.114Z,7.74
2023-04-09T01:49:55.893Z,8.15
2023-04-09T01:52:25.725Z,8.11
2023-04-09T01:54:55.569Z,7.54
2023-04-09T01:57:25.183Z,7.57
2023-04-09T01:59:57.790Z,7.85
2023-04-09T02:02:38.240Z,7.61
2023-04-09T02:05:12.004Z,7.24
2023-04-09T02:07:46.306Z,7.71
2023-04-09T02:10:17.574Z,8.06
2023-04-09T02:12:53.911Z,8.27
2023-04-09T02:15:27.297Z,8.10
2023-04-09T02:17:57.087Z,8.15
2023-04-09T02:20:26.947Z,7.34
2023-04-09T02:22:56.609Z,7.53
2023-04-09T02:25:26.510Z,7.47
2023-04-09T02:27:56.162Z,7.30
2023-04-09T02:30:28.668Z,7.47
2023-04-09T02:32:59.964Z,7.26
2023-04-09T02:35:29.629Z,7.05
2023-04-09T02:37:59.750Z,7.69
2023-04-09T02:40:29.672Z,7.00
2023-04-09T02:42:59.917Z,7.06
2023-04-09T02:45:32.107Z,7.73
2023-04-09T02:48:02.215Z,6.90
2023-04-09T02:50:35.444Z,7.39
2023-04-09T02:53:05.796Z,7.40
2023-04-09T02:55:35.545Z,7.02
2023-04-09T02:58:05.358Z,6.37
2023-04-09T03:00:37.763Z,6.77
2023-04-09T03:03:07.829Z,6.86
2023-04-09T03:05:38.215Z,7.10
2023-04-09T03:08:08.734Z,7.53
2023-04-09T03:10:38.473Z,7.53
2023-04-09T03:13:08.145Z,6.96
2023-04-09T03:15:40.486Z,7.51
2023-04-09T03:18:10.412Z,7.08
2023-04-09T03:20:40.857Z,7.07
2023-04-09T03:23:13.773Z,7.04
2023-04-09T03:25:47.754Z,7.10
2023-04-09T03:28:19.941Z,6.93
2023-04-09T03:30:56.519Z,6.34
2023-04-09T03:33:27.079Z,6.93
2023-04-09T03:35:58.934Z,6.83
2023-04-09T03:38:38.695Z,6.60
2023-04-09T03:41:14.095Z,7.06
2023-04-09T03:43:43.905Z,7.11
2023-04-09T03:46:19.351Z,6.80
2023-04-09T03:48:51.205Z,7.11
2023-04-09T03:51:21.906Z,6.93
2023-04-09T03:53:57.232Z,7.51
2023-04-09T03:56:27.150Z,7.21
2023-04-09T03:58:56.794Z,6.92
2023-04-09T04:01:38.429Z,7.09
2023-04-09T04:04:08.503Z,7.46
2023-04-09T04:06:48.139Z,7.71
2023-04-09T04:09:33.082Z,7.62
2023-04-09T04:12:07.954Z,6.82
2023-04-09T04:14:51.913Z,6.34
2023-04-09T04:17:31.218Z,6.55
2023-04-09T04:20:01.803Z,6.94
2023-04-09T04:22:36.757Z,7.18
2023-04-09T04:25:08.336Z,6.44
2023-04-09T04:27:38.359Z,5.96
2023-04-09T04:30:13.482Z,6.17
2023-04-09T04:33:01.137Z,6.09
2023-04-09T04:35:34.982Z,6.35
2023-04-09T04:38:07.077Z,5.79
2023-04-09T04:40:40.284Z,5.72
2023-04-09T04:43:10.428Z,5.91
2023-04-09T04:45:40.226Z,5.95
2023-04-09T04:48:16.703Z,5.60
2023-04-09T04:50:48.689Z,5.91
2023-04-09T04:53:18.891Z,6.12
2023-04-09T04:55:52.867Z,5.78
2023-04-09T04:58:27.923Z,5.71
2023-04-09T05:01:01.127Z,5.71
2023-04-09T05:03:34.214Z,5.65
2023-04-09T05:06:23.018Z,5.65
2023-04-09T05:08:52.927Z,5.62
2023-04-09T05:11:22.873Z,5.52
2023-04-09T05:13:52.566Z,5.89
2023-04-09T05:16:23.820Z,5.54
2023-04-09T05:19:04.591Z,5.55
2023-04-09T05:21:34.541Z,5.54
2023-04-09T05:24:05.514Z,5.46
2023-04-09T05:26:36.798Z,5.41
2023-04-09T05:29:06.781Z,5.66
2023-04-09T05:31:37.709Z,5.77
2023-04-09T05:34:14.003Z,5.89
2023-04-09T05:36:52.007Z,5.68
2023-04-09T05:39:24.281Z,6.13
2023-04-09T05:41:55.077Z,6.62
2023-04-09T05:44:27.554Z,7.21
2023-04-09T05:47:07.389Z,6.66
2023-04-09T05:49:48.521Z,6.87
2023-04-09T05:52:21.618Z,6.39
2023-04-09T05:54:53.403Z,6.97
2023-04-09T05:57:30.636Z,6.99
2023-04-09T06:00:04.102Z,6.27
2023-04-09T06:02:46.672Z,6.52
2023-04-09T06:05:19.400Z,6.41
2023-04-09T06:07:51.020Z,6.73
2023-04-09T06:10:21.801Z,6.52
2023-04-09T06:12:51.915Z,6.33
2023-04-09T06:15:21.882Z,6.55
2023-04-09T06:17:51.633Z,6.84
2023-04-09T06:20:24.009Z,6.74
2023-04-09T06:22:53.954Z,6.50
2023-04-09T06:25:23.717Z,6.50
2023-04-09T06:27:53.404Z,6.48
2023-04-09T06:30:23.138Z,6.37
2023-04-09T06:32:55.395Z,6.34
2023-04-09T06:35:27.854Z,6.91
2023-04-09T06:37:57.611Z,6.92
2023-04-09T06:40:27.325Z,6.74
2023-04-09T06:42:57.041Z,6.55
2023-04-09T06:45:32.779Z,6.40
2023-04-09T06:48:02.857Z,6.23
2023-04-09T06:50:35.183Z,6.39
2023-04-09T06:53:05.262Z,6.22
2023-04-09T06:55:34.975Z,6.28
2023-04-09T06:58:04.839Z,5.97
2023-04-09T07:00:34.555Z,6.37
2023-04-09T07:03:05.011Z,6.07
2023-04-09T07:05:37.939Z,6.26
2023-04-09T07:08:08.245Z,5.99
2023-04-09T07:10:37.977Z,6.19
2023-04-09T07:13:07.655Z,6.50
2023-04-09T07:15:38.042Z,6.47
2023-04-09T07:18:09.376Z,6.48
2023-04-09T07:20:41.807Z,6.79
2023-04-09T07:23:11.867Z,6.58
2023-04-09T07:25:41.510Z,6.65
2023-04-09T07:28:11.710Z,6.88
2023-04-09T07:30:42.307Z,6.67
2023-04-09T07:33:11.999Z,6.62
2023-04-09T07:35:44.338Z,6.45
2023-04-09T07:38:14.011Z,6.52
2023-04-09T07:40:43.736Z,6.77
2023-04-09T07:43:13.513Z,6.80
2023-04-09T07:45:44.715Z,7.17
2023-04-09T07:48:14.434Z,7.35
2023-04-09T07:50:48.385Z,7.72
2023-04-09T07:53:18.084Z,7.07
2023-04-09T07:55:47.748Z,7.31
2023-04-09T07:58:18.623Z,7.10
2023-04-09T08:00:48.829Z,7.65
2023-04-09T08:03:19.587Z,7.62
2023-04-09T08:05:52.537Z,6.77
2023-04-09T08:08:22.683Z,7.13
2023-04-09T08:10:52.327Z,6.51
2023-04-09T08:13:22.066Z,6.66
2023-04-09T08:15:51.868Z,6.86
2023-04-09T08:18:21.585Z,7.05
2023-04-09T08:20:53.809Z,7.56
2023-04-09T08:23:23.449Z,7.13
2023-04-09T08:25:53.350Z,7.76
2023-04-09T08:28:23.396Z,8.09
2023-04-09T08:30:53.182Z,8.01
2023-04-09T08:33:22.969Z,8.74
2023-04-09T08:35:55.324Z,8.48
2023-04-09T08:38:25.143Z,8.29
2023-04-09T08:40:54.817Z,8.68
2023-04-09T08:43:41.900Z,8.89
2023-04-09T08:46:18.339Z,9.37
2023-04-09T08:48:49.371Z,9.93
2023-04-09T08:51:23.324Z,10.09
2023-04-09T08:53:58.342Z,9.27
2023-04-09T08:56:29.052Z,9.43
2023-04-09T08:58:59.379Z,9.79
2023-04-09T09:01:31.121Z,9.54
2023-04-09T09:04:04.449Z,9.32
2023-04-09T09:06:38.756Z,8.83
2023-04-09T09:09:10.031Z,8.65
2023-04-09T09:11:41.738Z,9.94
2023-04-09T09:14:12.908Z,9.57
2023-04-09T09:16:45.010Z,10.33
2023-04-09T09:19:33.776Z,10.33
2023-04-09T09:22:08.138Z,10.73
2023-04-09T09:24:50.364Z,9.96
2023-04-09T09:27:37.161Z,10.12
2023-04-09T09:30:08.752Z,9.87
2023-04-09T09:32:39.373Z,10.00
2023-04-09T09:35:10.670Z,9.39
2023-04-09T09:37:42.929Z,9.28
2023-04-09T09:40:14.297Z,9.32
2023-04-09T09:42:58.049Z,9.88
2023-04-09T09:45:28.287Z,10.07
2023-04-09T09:47:58.095Z,9.61
2023-04-09T09:50:28.907Z,10.38
2023-04-09T09:53:05.484Z,10.25
2023-04-09T09:55:36.020Z,11.38
2023-04-09T09:58:12.274Z,10.23
2023-04-09T10:00:43.315Z,10.37
2023-04-09T10:03:18.413Z,11.44
2023-04-09T10:05:48.680Z,11.58
2023-04-09T10:08:21.173Z,10.72
2023-04-09T10:10:51.870Z,10.79
2023-04-09T10:13:24.504Z,11.32
2023-04-09T10:15:54.836Z,10.55
2023-04-09T10:18:24.545Z,11.12
2023-04-09T10:21:01.452Z,11.17
2023-04-09T10:23:41.537Z,11.02
2023-04-09T10:26:11.562Z,10.86
2023-04-09T10:28:41.501Z,11.51
2023-04-09T10:31:11.737Z,11.40
2023-04-09T10:33:42.134Z,11.43
2023-04-09T10:36:15.010Z,10.75
2023-04-09T10:38:51.109Z,11.20
2023-04-09T10:41:27.795Z,10.69
2023-04-09T10:43:57.493Z,10.97
2023-04-09T10:46:31.661Z,10.38
2023-04-09T10:49:12.290Z,10.86
2023-04-09T10:51:45.276Z,10.93
2023-04-09T10:54:44.038Z,10.59
2023-04-09T10:57:18.604Z,12.37
2023-04-09T10:59:50.047Z,11.27
2023-04-09T11:02:49.797Z,11.07
2023-04-09T11:05:38.819Z,10.89
2023-04-09T11:08:11.070Z,11.97
2023-04-09T11:10:46.408Z,12.15
2023-04-09T11:13:17.225Z,11.80
2023-04-09T11:15:48.012Z,12.32
2023-04-09T11:18:18.119Z,12.98
2023-04-09T11:20:48.731Z,12.16
2023-04-09T11:23:20.167Z,12.58
2023-04-09T11:25:55.360Z,12.87
2023-04-09T11:28:26.674Z,12.20
2023-04-09T11:30:56.607Z,11.09
2023-04-09T11:33:26.579Z,11.26
2023-04-09T11:35:56.352Z,11.34
2023-04-09T11:38:26.427Z,11.72
2023-04-09T11:41:01.467Z,12.89
2023-04-09T11:43:31.163Z,12.07
2023-04-09T11:46:02.271Z,12.06
2023-04-09T11:48:33.390Z,12.07
2023-04-09T11:51:04.174Z,12.25
2023-04-09T11:53:34.440Z,12.31
2023-04-09T11:56:07.338Z,12.32
2023-04-09T11:58:37.998Z,12.15
2023-04-09T12:01:07.800Z,12.25
2023-04-09T12:03:38.030Z,12.46
2023-04-09T12:06:09.416Z,12.16
2023-04-09T12:08:39.943Z,12.64
2023-04-09T12:11:19.056Z,12.12
2023-04-09T12:13:48.937Z,12.16
2023-04-09T12:16:22.492Z,12.72
2023-04-09T12:18:55.955Z,12.19
2023-04-09T12:21:27.838Z,12.76
2023-04-09T12:23:57.588Z,12.42
2023-04-09T12:26:29.922Z,12.31
2023-04-09T12:28:59.660Z,12.19
2023-04-09T12:31:29.576Z,12.67
2023-04-09T12:33:59.265Z,12.58
2023-04-09T12:36:30.074Z,12.84
2023-04-09T12:38:59.754Z,13.07
2023-04-09T12:41:32.562Z,13.29
2023-04-09T12:44:02.209Z,13.29
2023-04-09T12:46:32.777Z,13.14
2023-04-09T12:49:02.542Z,13.47
2023-04-09T12:51:32.950Z,13.59
2023-04-09T12:54:04.225Z,13.52
2023-04-09T12:56:36.617Z,14.04
2023-04-09T12:59:06.917Z,13.09
2023-04-09T13:01:36.762Z,13.84
2023-04-09T13:04:06.784Z,13.09
2023-04-09T13:06:36.752Z,13.12
2023-04-09T13:09:06.671Z,13.44
2023-04-09T13:11:38.985Z,12.88
2023-04-09T13:14:13.576Z,13.45
2023-04-09T13:16:43.661Z,13.62
2023-04-09T13:19:13.599Z,13.83
2023-04-09T13:21:43.313Z,13.44
2023-04-09T13:24:13.137Z,12.75
2023-04-09T13:26:45.683Z,13.60
2023-04-09T13:29:15.693Z,13.35
2023-04-09T13:31:45.312Z,13.83
2023-04-09T13:34:14.984Z,13.87
2023-04-09T13:36:44.666Z,13.45
2023-04-09T13:39:14.363Z,13.39
2023-04-09T13:41:46.808Z,13.30
2023-04-09T13:44:16.480Z,13.31
2023-04-09T13:46:46.409Z,13.52
2023-04-09T13:49:16.661Z,13.65
2023-04-09T13:51:46.412Z,13.74
2023-04-09T13:54:16.262Z,13.49
2023-04-09T13:56:50.176Z,13.68
2023-04-09T13:59:19.862Z,14.13
2023-04-09T14:01:49.732Z,14.86
2023-04-09T14:04:19.784Z,14.75
2023-04-09T14:06:49.493Z,14.23
2023-04-09T14:09:19.194Z,14.39
2023-04-09T14:11:51.538Z,14.66
2023-04-09T14:14:21.330Z,14.36
2023-04-09T14:16:51.117Z,14.65
2023-04-09T14:19:20.792Z,14.41
2023-04-09T14:21:53.339Z,14.38
2023-04-09T14:24:23.423Z,13.49
2023-04-09T14:26:57.010Z,13.37
2023-04-09T14:29:26.646Z,13.73
2023-04-09T14:31:57.349Z,14.07
2023-04-09T14:34:27.055Z,14.22
2023-04-09T14:36:56.717Z,13.69
2023-04-09T14:39:26.382Z,13.46
2023-04-09T14:41:58.651Z,13.39
2023-04-09T14:44:28.409Z,13.38
2023-04-09T14:47:00.113Z,13.12
2023-04-09T14:49:29.851Z,13.67
2023-04-09T14:51:59.536Z,13.76
2023-04-09T14:54:30.577Z,13.16
2023-04-09T14:57:03.050Z,13.25
2023-04-09T14:59:32.692Z,13.29
2023-04-09T15:02:03.110Z,13.66
2023-04-09T15:04:33.057Z,13.10
2023-04-09T15:07:02.783Z,13.01
2023-04-09T15:09:32.421Z,13.15
2023-04-09T15:12:04.700Z,13.27
2023-04-09T15:14:34.530Z,13.70
2023-04-09T15:17:04.180Z,12.98
2023-04-09T15:19:33.885Z,13.22
2023-04-09T15:22:03.509Z,14.08
2023-04-09T15:24:34.122Z,13.84
2023-04-09T15:27:06.589Z,13.72
2023-04-09T15:29:36.397Z,13.80
2023-04-09T15:32:06.191Z,13.81
2023-04-09T15:34:35.898Z,13.47
2023-04-09T15:37:05.754Z,13.40
2023-04-09T15:39:35.495Z,13.40
2023-04-09T15:42:10.317Z,13.22
2023-04-09T15:44:41.591Z,13.60
2023-04-09T15:47:11.259Z,13.15
2023-04-09T15:49:40.896Z,13.22
2023-04-09T15:52:10.647Z,13.21
2023-04-09T15:54:40.346Z,13.21
2023-04-09T15:57:12.641Z,13.43
2023-04-09T15:59:42.297Z,13.56
2023-04-09T16:02:12.036Z,13.25
2023-04-09T16:04:41.824Z,13.18
2023-04-09T16:07:11.603Z,13.28
2023-04-09T16:09:41.671Z,13.29
2023-04-09T16:12:13.918Z,13.58
2023-04-09T16:14:43.776Z,13.65
2023-04-09T16:17:13.416Z,13.81
2023-04-09T16:19:44.738Z,13.25
2023-04-09T16:22:14.388Z,13.52
2023-04-09T16:24:44.104Z,13.10
2023-04-09T16:27:16.878Z,12.88
2023-04-09T16:29:46.884Z,12.96
2023-04-09T16:32:16.641Z,12.77
2023-04-09T16:34:47.470Z,12.67
2023-04-09T16:37:17.117Z,12.51
2023-04-09T16:39:46.881Z,12.29
2023-04-09T16:42:19.129Z,12.39
2023-04-09T16:44:48.827Z,12.59
2023-04-09T16:47:18.572Z,12.43
2023-04-09T16:49:48.217Z,12.61
2023-04-09T16:52:17.962Z,12.81
2023-04-09T16:54:47.607Z,12.51
2023-04-09T16:57:19.834Z,12.39
2023-04-09T16:59:49.481Z,12.47
2023-04-09T17:02:21.914Z,11.96
2023-04-09T17:04:51.780Z,11.88
2023-04-09T17:07:22.040Z,12.03
2023-04-09T17:09:52.199Z,11.76
2023-04-09T17:12:24.765Z,11.73
2023-04-09T17:14:54.706Z,11.70
2023-04-09T17:17:24.386Z,11.54
2023-04-09T17:19:54.231Z,11.59
2023-04-09T17:22:23.972Z,11.70
2023-04-09T17:24:53.981Z,11.59
2023-04-09T17:27:26.285Z,11.61
2023-04-09T17:29:56.563Z,11.55
2023-04-09T17:32:26.330Z,11.73
2023-04-09T17:34:56.119Z,11.75
2023-04-09T17:37:25.748Z,11.56
2023-04-09T17:39:55.599Z,11.32
2023-04-09T17:42:27.836Z,11.14
2023-04-09T17:44:57.484Z,11.17
2023-04-09T17:47:27.433Z,11.12
2023-04-09T17:49:57.134Z,11.28
2023-04-09T17:52:26.965Z,11.35
2023-04-09T17:54:56.830Z,11.13
2023-04-09T17:57:29.158Z,11.12
2023-04-09T17:59:58.824Z,11.27
2023-04-09T18:02:31.648Z,10.98
2023-04-09T18:05:02.153Z,10.89
2023-04-09T18:07:34.084Z,10.77
2023-04-09T18:10:04.076Z,10.54
2023-04-09T18:12:36.344Z,10.54
2023-04-09T18:15:06.444Z,10.19
2023-04-09T18:17:36.183Z,10.00
2023-04-09T18:20:06.716Z,10.04
2023-04-09T18:22:36.520Z,10.31
2023-04-09T18:25:07.174Z,9.95
2023-04-09T18:27:39.726Z,10.24
2023-04-09T18:30:10.773Z,9.51
2023-04-09T18:32:40.489Z,9.75
2023-04-09T18:35:11.213Z,9.89
2023-04-09T18:37:41.119Z,9.91
2023-04-09T18:40:16.069Z,8.96
2023-04-09T18:42:52.738Z,8.93
2023-04-09T18:45:22.638Z,8.99
2023-04-09T18:47:52.377Z,8.99
2023-04-09T18:50:22.137Z,8.60
2023-04-09T18:52:51.808Z,8.79
2023-04-09T18:55:21.528Z,8.89
2023-04-09T18:57:54.431Z,8.31
2023-04-09T19:00:24.250Z,8.55
2023-04-09T19:02:54.190Z,8.40
2023-04-09T19:05:24.050Z,8.62
2023-04-09T19:07:53.771Z,8.10
2023-04-09T19:10:23.437Z,8.16
2023-04-09T19:12:56.079Z,8.18
2023-04-09T19:15:26.875Z,8.39
2023-04-09T19:17:56.798Z,9.02
2023-04-09T19:20:26.582Z,8.92
2023-04-09T19:22:57.607Z,8.88
2023-04-09T19:25:27.386Z,7.90
2023-04-09T19:27:59.832Z,7.79
2023-04-09T19:30:29.765Z,8.74
2023-04-09T19:32:59.633Z,9.07
2023-04-09T19:35:29.454Z,9.19
2023-04-09T19:37:59.310Z,8.71
2023-04-09T19:40:29.122Z,7.87
2023-04-09T19:43:01.422Z,7.52
2023-04-09T19:45:31.405Z,7.47
2023-04-09T19:48:01.570Z,7.83
2023-04-09T19:50:31.396Z,8.12
2023-04-09T19:53:01.266Z,8.75
2023-04-09T19:55:31.263Z,8.68
2023-04-09T19:58:03.692Z,8.39
2023-04-09T20:00:35.130Z,7.72
2023-04-09T20:03:07.155Z,7.24
2023-04-09T20:05:37.073Z,6.89
2023-04-09T20:08:12.244Z,6.64
2023-04-09T20:10:46.576Z,6.88
2023-04-09T20:13:18.879Z,7.62
2023-04-09T20:15:50.049Z,7.26
2023-04-09T20:18:19.682Z,6.84
2023-04-09T20:20:50.879Z,7.84
2023-04-09T20:23:20.590Z,8.51
2023-04-09T20:25:54.742Z,8.96
2023-04-09T20:28:27.870Z,9.02
2023-04-09T20:30:57.849Z,7.78
2023-04-09T20:33:27.698Z,7.26
2023-04-09T20:35:57.439Z,7.50
2023-04-09T20:38:27.218Z,8.53
2023-04-09T20:40:56.899Z,8.48
2023-04-09T20:43:29.119Z,9.01
2023-04-09T20:45:58.827Z,9.05
2023-04-09T20:48:28.601Z,9.11
2023-04-09T20:50:58.716Z,8.61
2023-04-09T20:53:28.817Z,8.47
2023-04-09T20:55:58.844Z,7.59
2023-04-09T20:58:31.210Z,7.70
2023-04-09T21:01:07.371Z,7.91
2023-04-09T21:03:37.390Z,6.84
2023-04-09T21:06:08.354Z,6.88
2023-04-09T21:08:38.671Z,7.76
2023-04-09T21:11:08.544Z,7.93
2023-04-09T21:13:53.824Z,8.18
2023-04-09T21:16:26.219Z,7.61
2023-04-09T21:18:56.188Z,7.20
2023-04-09T21:21:27.587Z,7.08
2023-04-09T21:23:57.282Z,6.97
2023-04-09T21:26:28.114Z,6.81
2023-04-09T21:29:02.518Z,6.69
2023-04-09T21:31:32.268Z,6.83
2023-04-09T21:34:01.925Z,7.04
2023-04-09T21:36:34.850Z,7.23
2023-04-09T21:39:04.571Z,7.28
2023-04-09T21:41:34.223Z,7.88
2023-04-09T21:44:08.749Z,8.09
2023-04-09T21:46:41.027Z,7.95
2023-04-09T21:49:11.245Z,7.55
2023-04-09T21:51:41.880Z,7.79
2023-04-09T21:54:12.483Z,7.68
2023-04-09T21:56:42.176Z,8.10
2023-04-09T21:59:14.400Z,7.58
2023-04-09T22:01:45.324Z,7.03
2023-04-09T22:04:15.786Z,7.34
2023-04-09T22:06:47.958Z,7.72
2023-04-09T22:09:17.817Z,8.08
2023-04-09T22:11:47.623Z,7.96
2023-04-09T22:14:20.097Z,8.03
2023-04-09T22:16:50.007Z,8.35
2023-04-09T22:19:19.624Z,8.22
2023-04-09T22:21:50.837Z,8.24
2023-04-09T22:24:26.886Z,8.09
2023-04-09T22:26:59.169Z,7.99
2023-04-09T22:29:32.096Z,7.98
2023-04-09T22:32:02.812Z,6.48
2023-04-09T22:34:32.585Z,6.77
2023-04-09T22:37:02.292Z,6.86
2023-04-09T22:39:32.136Z,7.03
2023-04-09T22:42:01.972Z,7.59
2023-04-09T22:44:34.238Z,7.90
2023-04-09T22:47:03.874Z,6.95
2023-04-09T22:49:33.589Z,6.48
2023-04-09T22:52:03.210Z,6.54
2023-04-09T22:54:32.931Z,7.21
2023-04-09T22:57:03.196Z,7.42
2023-04-09T23:02:08.197Z,5.73
2023-04-09T23:04:38.021Z,5.10
2023-04-09T23:07:08.056Z,5.11
2023-04-09T23:09:37.716Z,5.32
2023-04-09T23:12:07.371Z,5.61
2023-04-09T23:14:40.018Z,6.42
2023-04-09T23:17:09.927Z,6.45
2023-04-09T23:19:39.599Z,6.36
2023-04-09T23:22:09.444Z,6.04
2023-04-09T23:24:39.104Z,5.56
2023-04-09T23:27:08.751Z,5.62
2023-04-09T23:29:40.999Z,6.36
2023-04-09T23:32:10.795Z,5.82
2023-04-09T23:34:40.454Z,6.81
2023-04-09T23:37:10.454Z,6.79
2023-04-09T23:39:40.093Z,6.67
2023-04-09T23:42:09.734Z,5.73
2023-04-09T23:44:44.058Z,5.56
2023-04-09T23:47:13.939Z,5.76
2023-04-09T23:49:43.629Z,5.81
2023-04-09T23:52:13.313Z,6.54
2023-04-09T23:54:51.417Z,6.59
2023-04-09T23:57:21.158Z,6.32
2023-04-09T23:59:53.404Z,6.63
